Terminal Aerodrome Forecast
Issued by NWS Wilmington, NC

Home | Current Version | Previous Version | Text Only | Print | Product List | Glossary On
Versions: 1 2 3 4 5 6 7 8 9 10 11 12
000
FTUS42 KILM 181720
TAFMYR
TAF
KMYR 181720Z 1818/1918 17011KT P6SM SCT060 BKN250
     FM182000 19012KT P6SM SCT250
     FM190300 21014G24KT P6SM SCT250
     FM190900 24015G26KT P6SM VCSH BKN035 BKN250
     FM191200 29012G20KT P6SM SCT030 BKN100
     FM191400 31012G20KT P6SM SKC=

USA.gov is the U.S. government's official web portal to all federal, state and local government web resources and services.